createdAt,value
2023-01-22T00:03:28.083Z,13.93
2023-01-22T00:08:35.538Z,13.63
2023-01-22T00:13:40.278Z,14.15
2023-01-22T00:18:45.034Z,15.45
2023-01-22T00:23:52.421Z,15.18
2023-01-22T00:28:57.435Z,18.70
2023-01-22T00:34:02.189Z,15.07
2023-01-22T00:39:09.690Z,12.82
2023-01-22T00:44:14.417Z,14.52
2023-01-22T00:49:19.116Z,13.65
2023-01-22T00:54:26.500Z,13.80
2023-01-22T00:59:31.197Z,11.15
2023-01-22T01:04:35.926Z,12.88
2023-01-22T01:09:43.258Z,15.63
2023-01-22T01:14:48.025Z,13.95
2023-01-22T01:19:52.861Z,15.00
2023-01-22T01:25:00.247Z,13.20
2023-01-22T01:30:05.075Z,12.38
2023-01-22T01:35:10.144Z,13.73
2023-01-22T01:40:17.992Z,15.35
2023-01-22T01:45:27.549Z,14.77
2023-01-22T01:50:32.502Z,14.13
2023-01-22T01:55:42.103Z,23.40
2023-01-22T02:00:47.095Z,30.50
2023-01-22T02:05:51.837Z,24.95
2023-01-22T02:10:59.181Z,15.48
2023-01-22T02:16:05.341Z,12.10
2023-01-22T02:21:24.880Z,14.23
2023-01-22T02:26:32.339Z,14.23
2023-01-22T02:31:37.130Z,13.75
2023-01-22T02:36:42.990Z,15.20
2023-01-22T02:41:50.265Z,13.00
2023-01-22T02:46:55.081Z,26.17
2023-01-22T02:51:59.883Z,26.13
2023-01-22T02:57:07.354Z,28.33
2023-01-22T03:02:12.073Z,24.23
2023-01-22T03:07:16.874Z,22.67
2023-01-22T03:12:24.235Z,19.58
2023-01-22T03:17:41.301Z,19.40
2023-01-22T03:22:46.031Z,20.80
2023-01-22T03:28:05.698Z,25.13
2023-01-22T03:33:10.446Z,21.85
2023-01-22T03:38:15.200Z,17.48
2023-01-22T03:43:22.653Z,18.65
2023-01-22T03:48:27.451Z,23.63
2023-01-22T03:53:32.274Z,36.45
2023-01-22T03:58:39.845Z,24.08
2023-01-22T04:03:44.765Z,20.45
2023-01-22T04:08:50.020Z,27.98
2023-01-22T04:13:57.757Z,23.90
2023-01-22T04:19:02.569Z,25.08
2023-01-22T04:24:07.652Z,35.78
2023-01-22T04:29:15.145Z,27.63
2023-01-22T04:34:19.851Z,24.00
2023-01-22T04:39:24.647Z,25.38
2023-01-22T04:44:31.942Z,22.63
2023-01-22T04:49:36.738Z,26.08
2023-01-22T04:54:41.432Z,27.00
2023-01-22T04:59:48.957Z,21.85
2023-01-22T05:04:53.719Z,23.52
2023-01-22T05:09:58.423Z,22.40
2023-01-22T05:15:15.098Z,25.02
2023-01-22T05:20:27.414Z,28.42
2023-01-22T05:25:32.148Z,38.08
2023-01-22T05:30:39.500Z,38.42
2023-01-22T05:35:44.310Z,34.25
2023-01-22T05:40:49.051Z,39.70
2023-01-22T05:45:56.532Z,62.08
2023-01-22T05:51:04.967Z,49.25
2023-01-22T05:56:09.995Z,66.18
2023-01-22T06:01:17.425Z,43.83
2023-01-22T06:06:22.407Z,50.63
2023-01-22T06:11:27.628Z,54.58
2023-01-22T06:16:35.072Z,49.88
2023-01-22T06:21:39.772Z,52.42
2023-01-22T06:26:44.733Z,58.38
2023-01-22T06:31:52.075Z,55.88
2023-01-22T06:36:56.842Z,55.70
2023-01-22T06:42:01.554Z,59.88
2023-01-22T06:47:08.999Z,62.47
2023-01-22T06:52:13.781Z,61.05
2023-01-22T06:57:18.448Z,64.10
2023-01-22T07:02:25.802Z,64.90
2023-01-22T07:07:30.569Z,64.55
2023-01-22T07:12:35.290Z,59.72
2023-01-22T07:17:42.717Z,58.35
2023-01-22T07:22:47.440Z,69.57
2023-01-22T07:27:52.176Z,141.52
2023-01-22T07:33:00.787Z,127.60
2023-01-22T07:38:05.506Z,116.03
2023-01-22T07:43:15.246Z,73.38
2023-01-22T07:48:22.593Z,55.78
2023-01-22T07:53:27.418Z,91.90
2023-01-22T07:58:32.177Z,47.33
2023-01-22T08:03:39.526Z,35.90
2023-01-22T08:08:44.508Z,39.38
2023-01-22T08:13:49.254Z,27.90
2023-01-22T08:18:56.774Z,27.70
2023-01-22T08:24:01.581Z,38.20
2023-01-22T08:29:07.712Z,81.93
2023-01-22T08:34:15.347Z,58.42
2023-01-22T08:39:22.352Z,42.95
2023-01-22T08:44:27.324Z,45.95
2023-01-22T08:49:38.268Z,70.53
2023-01-22T08:54:43.112Z,42.63
2023-01-22T09:00:00.450Z,59.75
2023-01-22T09:05:09.014Z,44.42
2023-01-22T09:10:14.248Z,116.55
2023-01-22T09:15:19.213Z,114.03
2023-01-22T09:20:26.625Z,68.93
2023-01-22T09:25:31.419Z,22.52
2023-01-22T09:30:36.277Z,24.42
2023-01-22T09:35:43.781Z,38.92
2023-01-22T09:40:51.452Z,44.22
2023-01-22T09:45:57.829Z,129.82
2023-01-22T09:51:05.547Z,36.72
2023-01-22T09:56:14.642Z,64.38
2023-01-22T10:01:20.207Z,77.32
2023-01-22T10:06:30.150Z,39.13
2023-01-22T10:11:34.903Z,32.63
2023-01-22T10:16:40.454Z,30.30
2023-01-22T10:21:51.277Z,29.48
2023-01-22T10:26:59.175Z,36.70
2023-01-22T10:32:05.069Z,42.45
2023-01-22T10:37:16.765Z,28.63
2023-01-22T10:42:23.212Z,57.00
2023-01-22T10:47:28.980Z,64.85
2023-01-22T10:52:41.570Z,47.17
2023-01-22T10:57:49.987Z,82.93
2023-01-22T11:02:55.015Z,46.05
2023-01-22T11:08:03.150Z,46.25
2023-01-22T11:13:10.671Z,58.03
2023-01-22T11:18:19.837Z,51.10
2023-01-22T11:23:30.484Z,221.57
2023-01-22T11:28:41.935Z,81.22
2023-01-22T11:34:16.453Z,65.00
2023-01-22T11:39:26.303Z,62.25
2023-01-22T11:44:46.322Z,130.63
2023-01-22T11:49:56.530Z,46.45
2023-01-22T11:55:09.618Z,29.00
2023-01-22T12:00:36.326Z,23.85
2023-01-22T12:05:47.411Z,25.08
2023-01-22T12:11:06.567Z,42.33
2023-01-22T12:16:16.147Z,40.40
2023-01-22T12:21:26.484Z,38.10
2023-01-22T12:26:34.709Z,41.85
2023-01-22T12:31:41.768Z,72.75
2023-01-22T12:36:46.933Z,54.00
2023-01-22T12:41:57.137Z,32.63
2023-01-22T12:47:04.511Z,30.77
2023-01-22T12:52:24.000Z,39.42
2023-01-22T12:57:40.085Z,45.35
2023-01-22T13:02:44.909Z,37.25
2023-01-22T13:07:50.327Z,30.20
2023-01-22T13:12:58.760Z,37.42
2023-01-22T13:18:07.455Z,31.13
2023-01-22T13:23:15.012Z,53.20
2023-01-22T13:28:22.536Z,87.95
2023-01-22T13:33:27.399Z,46.97
2023-01-22T13:38:35.350Z,36.90
2023-01-22T13:43:43.355Z,34.20
2023-01-22T13:48:48.206Z,32.90
2023-01-22T13:53:54.978Z,30.13
2023-01-22T13:59:21.470Z,33.50
2023-01-22T14:04:30.684Z,34.75
2023-01-22T14:09:36.491Z,24.17
2023-01-22T14:14:44.400Z,27.00
2023-01-22T14:19:49.069Z,31.02
2023-01-22T14:24:55.225Z,28.80
2023-01-22T14:30:02.560Z,31.02
2023-01-22T14:35:07.669Z,28.98
2023-01-22T14:40:13.271Z,24.75
2023-01-22T14:45:21.063Z,28.23
2023-01-22T14:50:26.158Z,29.02
2023-01-22T14:55:30.918Z,33.63
2023-01-22T15:00:38.942Z,59.30
2023-01-22T15:05:43.909Z,28.95
2023-01-22T15:10:48.782Z,44.03
2023-01-22T15:15:56.214Z,33.58
2023-01-22T15:21:00.966Z,34.78
2023-01-22T15:26:08.238Z,41.85
2023-01-22T15:31:15.678Z,31.33
2023-01-22T15:36:20.541Z,36.45
2023-01-22T15:41:28.918Z,29.40
2023-01-22T15:46:37.482Z,36.85
2023-01-22T15:51:42.475Z,31.02
2023-01-22T15:56:47.230Z,29.02
2023-01-22T16:01:55.416Z,31.13
2023-01-22T16:07:00.169Z,35.20
2023-01-22T16:12:04.849Z,29.02
2023-01-22T16:17:12.267Z,29.48
2023-01-22T16:22:17.147Z,40.65
2023-01-22T16:27:24.803Z,25.85
2023-01-22T16:32:32.146Z,29.00
2023-01-22T16:37:36.929Z,33.10
2023-01-22T16:42:41.768Z,40.28
2023-01-22T16:47:49.139Z,32.55
2023-01-22T16:52:53.900Z,26.60
2023-01-22T16:58:00.252Z,26.17
2023-01-22T17:03:07.587Z,33.83
2023-01-22T17:08:12.452Z,32.00
2023-01-22T17:13:17.249Z,31.50
2023-01-22T17:18:24.656Z,31.65
2023-01-22T17:23:29.458Z,37.28
2023-01-22T17:28:35.714Z,44.60
2023-01-22T17:33:42.950Z,42.67
2023-01-22T17:38:47.873Z,42.53
2023-01-22T17:43:57.910Z,83.75
2023-01-22T17:49:05.217Z,45.72
2023-01-22T17:54:09.949Z,49.17
2023-01-22T17:59:15.268Z,49.47
2023-01-22T18:04:22.755Z,64.45
2023-01-22T18:09:27.560Z,46.78
2023-01-22T18:14:34.269Z,35.17
2023-01-22T18:19:41.605Z,39.72
2023-01-22T18:24:46.540Z,35.45
2023-01-22T18:29:51.307Z,43.70
2023-01-22T18:34:58.677Z,37.97
2023-01-22T18:40:04.129Z,38.17
2023-01-22T18:45:09.736Z,39.45
2023-01-22T18:50:17.576Z,45.42
2023-01-22T18:55:25.280Z,37.85
2023-01-22T19:00:30.105Z,33.47
2023-01-22T19:05:37.528Z,40.25
2023-01-22T19:10:42.280Z,38.30
2023-01-22T19:15:47.167Z,38.38
2023-01-22T19:20:54.617Z,36.40
2023-01-22T19:26:06.331Z,44.63
2023-01-22T19:31:17.399Z,43.55
2023-01-22T19:36:27.515Z,39.25
2023-01-22T19:41:32.275Z,57.00
2023-01-22T19:46:38.018Z,48.20
2023-01-22T19:51:45.569Z,50.17
2023-01-22T19:56:50.264Z,41.85
2023-01-22T20:01:55.098Z,48.47
2023-01-22T20:07:05.160Z,52.65
2023-01-22T20:12:11.403Z,44.50
2023-01-22T20:17:16.882Z,53.50
2023-01-22T20:22:24.369Z,58.45
2023-01-22T20:27:29.323Z,61.00
2023-01-22T20:32:36.883Z,63.13
2023-01-22T20:37:44.830Z,55.10
2023-01-22T20:42:51.457Z,62.38
2023-01-22T20:47:56.216Z,56.38
2023-01-22T20:53:05.923Z,60.00
2023-01-22T20:58:10.712Z,58.23
2023-01-22T21:03:15.428Z,69.25
2023-01-22T21:08:22.881Z,77.28
2023-01-22T21:13:27.713Z,68.00
2023-01-22T21:18:32.440Z,65.22
2023-01-22T21:23:40.064Z,60.72
2023-01-22T21:28:44.946Z,64.28
2023-01-22T21:33:50.513Z,58.25
2023-01-22T21:38:58.007Z,85.03
2023-01-22T21:44:15.025Z,75.97
2023-01-22T21:49:22.779Z,75.53
2023-01-22T21:54:31.427Z,96.68
2023-01-22T21:59:36.993Z,80.05
2023-01-22T22:04:41.733Z,62.70
2023-01-22T22:09:49.025Z,82.70
2023-01-22T22:14:53.679Z,62.53
2023-01-22T22:19:58.338Z,74.10
2023-01-22T22:25:05.759Z,67.35
2023-01-22T22:30:11.457Z,62.10
2023-01-22T22:35:16.095Z,61.83
2023-01-22T22:40:23.403Z,63.88
2023-01-22T22:45:28.289Z,64.47
2023-01-22T22:50:32.984Z,74.93
2023-01-22T22:55:42.624Z,57.67
2023-01-22T23:00:47.298Z,60.70
2023-01-22T23:05:52.143Z,47.60
2023-01-22T23:10:59.503Z,51.83
2023-01-22T23:16:05.160Z,45.03
2023-01-22T23:21:10.967Z,48.30
2023-01-22T23:26:19.932Z,46.17
2023-01-22T23:31:24.795Z,44.60
2023-01-22T23:36:30.610Z,39.78
2023-01-22T23:41:37.922Z,42.45
2023-01-22T23:46:42.712Z,39.33
2023-01-22T23:51:47.465Z,39.20
2023-01-22T23:56:54.801Z,38.35
